sensor_id;sensor_type;location;lat;lon;timestamp;pressure;altitude;pressure_sealevel;temperature
15845;BMP180;50807;52.436;13.346;2022-08-21T00:00:22;101067.00;;;24.60
15845;BMP180;50807;52.436;13.346;2022-08-21T00:00:54;101075.00;;;24.60
15845;BMP180;50807;52.436;13.346;2022-08-21T00:01:28;101072.00;;;24.60
15845;BMP180;50807;52.436;13.346;2022-08-21T00:01:59;101072.00;;;24.60
15845;BMP180;50807;52.436;13.346;2022-08-21T00:02:30;101069.00;;;24.60
15845;BMP180;50807;52.436;13.346;2022-08-21T00:03:06;101071.00;;;24.60
15845;BMP180;50807;52.436;13.346;2022-08-21T00:03:37;101067.00;;;24.60
15845;BMP180;50807;52.436;13.346;2022-08-21T00:04:10;101071.00;;;24.60
15845;BMP180;50807;52.436;13.346;2022-08-21T00:04:42;101066.00;;;24.60
15845;BMP180;50807;52.436;13.346;2022-08-21T00:05:15;101074.00;;;24.60
15845;BMP180;50807;52.436;13.346;2022-08-21T00:05:49;101071.00;;;24.60
15845;BMP180;50807;52.436;13.346;2022-08-21T00:06:23;101067.00;;;24.60
15845;BMP180;50807;52.436;13.346;2022-08-21T00:06:54;101074.00;;;24.60
15845;BMP180;50807;52.436;13.346;2022-08-21T00:07:25;101070.00;;;24.60
15845;BMP180;50807;52.436;13.346;2022-08-21T00:07:58;101075.00;;;24.60
15845;BMP180;50807;52.436;13.346;2022-08-21T00:08:29;101074.00;;;24.60
15845;BMP180;50807;52.436;13.346;2022-08-21T00:09:00;101073.00;;;24.60
15845;BMP180;50807;52.436;13.346;2022-08-21T00:09:32;101075.00;;;24.60
15845;BMP180;50807;52.436;13.346;2022-08-21T00:10:04;101071.00;;;24.60
15845;BMP180;50807;52.436;13.346;2022-08-21T00:10:36;101076.00;;;24.60
15845;BMP180;50807;52.436;13.346;2022-08-21T00:11:08;101073.00;;;24.60
15845;BMP180;50807;52.436;13.346;2022-08-21T00:11:39;101069.00;;;24.60
15845;BMP180;50807;52.436;13.346;2022-08-21T00:12:10;101076.00;;;24.60
15845;BMP180;50807;52.436;13.346;2022-08-21T00:12:43;101078.00;;;24.60
15845;BMP180;50807;52.436;13.346;2022-08-21T00:13:14;101076.00;;;24.60
15845;BMP180;50807;52.436;13.346;2022-08-21T00:13:46;101080.00;;;24.60
15845;BMP180;50807;52.436;13.346;2022-08-21T00:14:17;101078.00;;;24.60
15845;BMP180;50807;52.436;13.346;2022-08-21T00:14:48;101072.00;;;24.60
15845;BMP180;50807;52.436;13.346;2022-08-21T00:15:24;101074.00;;;24.50
15845;BMP180;50807;52.436;13.346;2022-08-21T00:15:58;101074.00;;;24.50
15845;BMP180;50807;52.436;13.346;2022-08-21T00:16:29;101078.00;;;24.50
15845;BMP180;50807;52.436;13.346;2022-08-21T00:17:01;101069.00;;;24.50
15845;BMP180;50807;52.436;13.346;2022-08-21T00:17:32;101077.00;;;24.50
15845;BMP180;50807;52.436;13.346;2022-08-21T00:18:06;101073.00;;;24.50
15845;BMP180;50807;52.436;13.346;2022-08-21T00:18:37;101070.00;;;24.50
15845;BMP180;50807;52.436;13.346;2022-08-21T00:19:09;101071.00;;;24.50
15845;BMP180;50807;52.436;13.346;2022-08-21T00:19:40;101069.00;;;24.50
15845;BMP180;50807;52.436;13.346;2022-08-21T00:20:13;101068.00;;;24.50
15845;BMP180;50807;52.436;13.346;2022-08-21T00:20:46;101069.00;;;24.50
15845;BMP180;50807;52.436;13.346;2022-08-21T00:21:17;101062.00;;;24.50
15845;BMP180;50807;52.436;13.346;2022-08-21T00:21:48;101065.00;;;24.50
15845;BMP180;50807;52.436;13.346;2022-08-21T00:22:20;101068.00;;;24.50
15845;BMP180;50807;52.436;13.346;2022-08-21T00:22:51;101066.00;;;24.50
15845;BMP180;50807;52.436;13.346;2022-08-21T00:23:22;101067.00;;;24.50
15845;BMP180;50807;52.436;13.346;2022-08-21T00:23:54;101065.00;;;24.50
15845;BMP180;50807;52.436;13.346;2022-08-21T00:24:26;101067.00;;;24.50
15845;BMP180;50807;52.436;13.346;2022-08-21T00:24:57;101062.00;;;24.50
15845;BMP180;50807;52.436;13.346;2022-08-21T00:25:30;101062.00;;;24.40
15845;BMP180;50807;52.436;13.346;2022-08-21T00:26:01;101065.00;;;24.50
15845;BMP180;50807;52.436;13.346;2022-08-21T00:26:32;101059.00;;;24.50
15845;BMP180;50807;52.436;13.346;2022-08-21T00:27:04;101061.00;;;24.40
15845;BMP180;50807;52.436;13.346;2022-08-21T00:27:36;101064.00;;;24.40
15845;BMP180;50807;52.436;13.346;2022-08-21T00:28:07;101060.00;;;24.50
15845;BMP180;50807;52.436;13.346;2022-08-21T00:28:39;101062.00;;;24.40
15845;BMP180;50807;52.436;13.346;2022-08-21T00:29:09;101063.00;;;24.40
15845;BMP180;50807;52.436;13.346;2022-08-21T00:29:40;101063.00;;;24.40
15845;BMP180;50807;52.436;13.346;2022-08-21T00:30:25;101059.00;;;24.30
15845;BMP180;50807;52.436;13.346;2022-08-21T00:30:57;101058.00;;;24.40
15845;BMP180;50807;52.436;13.346;2022-08-21T00:31:28;101064.00;;;24.40
15845;BMP180;50807;52.436;13.346;2022-08-21T00:31:59;101065.00;;;24.40
15845;BMP180;50807;52.436;13.346;2022-08-21T00:32:30;101061.00;;;24.40
15845;BMP180;50807;52.436;13.346;2022-08-21T00:33:02;101067.00;;;24.40
15845;BMP180;50807;52.436;13.346;2022-08-21T00:33:34;101066.00;;;24.40
15845;BMP180;50807;52.436;13.346;2022-08-21T00:34:05;101061.00;;;24.40
15845;BMP180;50807;52.436;13.346;2022-08-21T00:34:37;101066.00;;;24.40
15845;BMP180;50807;52.436;13.346;2022-08-21T00:35:15;101063.00;;;24.30
15845;BMP180;50807;52.436;13.346;2022-08-21T00:35:46;101064.00;;;24.40
15845;BMP180;50807;52.436;13.346;2022-08-21T00:36:17;101060.00;;;24.30
15845;BMP180;50807;52.436;13.346;2022-08-21T00:36:48;101068.00;;;24.40
15845;BMP180;50807;52.436;13.346;2022-08-21T00:37:21;101067.00;;;24.30
15845;BMP180;50807;52.436;13.346;2022-08-21T00:37:52;101048.00;;;24.40
15845;BMP180;50807;52.436;13.346;2022-08-21T00:38:22;101067.00;;;24.40
15845;BMP180;50807;52.436;13.346;2022-08-21T00:38:55;101068.00;;;24.30
15845;BMP180;50807;52.436;13.346;2022-08-21T00:39:26;101060.00;;;24.40
15845;BMP180;50807;52.436;13.346;2022-08-21T00:39:57;101066.00;;;24.40
15845;BMP180;50807;52.436;13.346;2022-08-21T00:40:33;101067.00;;;24.30
15845;BMP180;50807;52.436;13.346;2022-08-21T00:41:09;101068.00;;;24.30
15845;BMP180;50807;52.436;13.346;2022-08-21T00:41:42;101064.00;;;24.30
15845;BMP180;50807;52.436;13.346;2022-08-21T00:42:14;101067.00;;;24.30
15845;BMP180;50807;52.436;13.346;2022-08-21T00:42:46;101069.00;;;24.30
15845;BMP180;50807;52.436;13.346;2022-08-21T00:43:22;101063.00;;;24.30
15845;BMP180;50807;52.436;13.346;2022-08-21T00:43:53;101067.00;;;24.30
15845;BMP180;50807;52.436;13.346;2022-08-21T00:44:25;101071.00;;;24.30
15845;BMP180;50807;52.436;13.346;2022-08-21T00:44:57;101066.00;;;24.30
15845;BMP180;50807;52.436;13.346;2022-08-21T00:45:30;101065.00;;;24.30
15845;BMP180;50807;52.436;13.346;2022-08-21T00:46:04;101064.00;;;24.30
15845;BMP180;50807;52.436;13.346;2022-08-21T00:46:37;101067.00;;;24.30
15845;BMP180;50807;52.436;13.346;2022-08-21T00:47:08;101070.00;;;24.30
15845;BMP180;50807;52.436;13.346;2022-08-21T00:47:40;101064.00;;;24.30
15845;BMP180;50807;52.436;13.346;2022-08-21T00:48:11;101067.00;;;24.30
15845;BMP180;50807;52.436;13.346;2022-08-21T00:48:42;101066.00;;;24.30
15845;BMP180;50807;52.436;13.346;2022-08-21T00:49:13;101067.00;;;24.30
15845;BMP180;50807;52.436;13.346;2022-08-21T00:49:45;101062.00;;;24.30
15845;BMP180;50807;52.436;13.346;2022-08-21T00:50:16;101067.00;;;24.30
15845;BMP180;50807;52.436;13.346;2022-08-21T00:50:54;101062.00;;;24.20
15845;BMP180;50807;52.436;13.346;2022-08-21T00:51:39;101066.00;;;24.10
15845;BMP180;50807;52.436;13.346;2022-08-21T00:52:17;101068.00;;;24.10
15845;BMP180;50807;52.436;13.346;2022-08-21T00:52:51;101059.00;;;24.20
15845;BMP180;50807;52.436;13.346;2022-08-21T00:53:23;101070.00;;;24.20
15845;BMP180;50807;52.436;13.346;2022-08-21T00:53:57;101067.00;;;24.20
15845;BMP180;50807;52.436;13.346;2022-08-21T00:54:31;101064.00;;;24.20
15845;BMP180;50807;52.436;13.346;2022-08-21T00:55:07;101063.00;;;24.20
15845;BMP180;50807;52.436;13.346;2022-08-21T00:55:40;101066.00;;;24.20
15845;BMP180;50807;52.436;13.346;2022-08-21T00:56:12;101069.00;;;24.20
15845;BMP180;50807;52.436;13.346;2022-08-21T00:56:46;101065.00;;;24.20
15845;BMP180;50807;52.436;13.346;2022-08-21T00:57:24;101065.00;;;24.10
15845;BMP180;50807;52.436;13.346;2022-08-21T00:57:59;101067.00;;;24.10
15845;BMP180;50807;52.436;13.346;2022-08-21T00:58:33;101068.00;;;24.10
15845;BMP180;50807;52.436;13.346;2022-08-21T00:59:06;101066.00;;;24.20
15845;BMP180;50807;52.436;13.346;2022-08-21T00:59:40;101066.00;;;24.20
15845;BMP180;50807;52.436;13.346;2022-08-21T01:00:19;101070.00;;;24.10
15845;BMP180;50807;52.436;13.346;2022-08-21T01:00:53;101063.00;;;24.10
15845;BMP180;50807;52.436;13.346;2022-08-21T01:01:24;101068.00;;;24.10
15845;BMP180;50807;52.436;13.346;2022-08-21T01:01:56;101066.00;;;24.10
15845;BMP180;50807;52.436;13.346;2022-08-21T01:02:27;101060.00;;;24.20
15845;BMP180;50807;52.436;13.346;2022-08-21T01:03:01;101068.00;;;24.10
15845;BMP180;50807;52.436;13.346;2022-08-21T01:03:37;101061.00;;;24.10
15845;BMP180;50807;52.436;13.346;2022-08-21T01:04:08;101064.00;;;24.20
15845;BMP180;50807;52.436;13.346;2022-08-21T01:04:40;101067.00;;;24.20
15845;BMP180;50807;52.436;13.346;2022-08-21T01:05:12;101066.00;;;24.10
15845;BMP180;50807;52.436;13.346;2022-08-21T01:05:45;101063.00;;;24.10
15845;BMP180;50807;52.436;13.346;2022-08-21T01:06:16;101067.00;;;24.10
15845;BMP180;50807;52.436;13.346;2022-08-21T01:06:48;101062.00;;;24.10
15845;BMP180;50807;52.436;13.346;2022-08-21T01:07:19;101071.00;;;24.10
15845;BMP180;50807;52.436;13.346;2022-08-21T01:07:50;101078.00;;;24.10
15845;BMP180;50807;52.436;13.346;2022-08-21T01:08:22;101068.00;;;24.10
15845;BMP180;50807;52.436;13.346;2022-08-21T01:08:53;101063.00;;;24.10
15845;BMP180;50807;52.436;13.346;2022-08-21T01:09:25;101063.00;;;24.10
15845;BMP180;50807;52.436;13.346;2022-08-21T01:09:57;101065.00;;;24.10
15845;BMP180;50807;52.436;13.346;2022-08-21T01:10:29;101069.00;;;24.10
15845;BMP180;50807;52.436;13.346;2022-08-21T01:11:01;101072.00;;;24.00
15845;BMP180;50807;52.436;13.346;2022-08-21T01:11:34;101068.00;;;24.10
15845;BMP180;50807;52.436;13.346;2022-08-21T01:12:07;101068.00;;;24.10
15845;BMP180;50807;52.436;13.346;2022-08-21T01:12:40;101070.00;;;24.10
15845;BMP180;50807;52.436;13.346;2022-08-21T01:13:16;101069.00;;;24.00
15845;BMP180;50807;52.436;13.346;2022-08-21T01:13:48;101062.00;;;24.00
15845;BMP180;50807;52.436;13.346;2022-08-21T01:14:20;101067.00;;;24.00
15845;BMP180;50807;52.436;13.346;2022-08-21T01:14:52;101071.00;;;24.00
15845;BMP180;50807;52.436;13.346;2022-08-21T01:15:27;101074.00;;;24.00
15845;BMP180;50807;52.436;13.346;2022-08-21T01:16:05;101057.00;;;23.90
15845;BMP180;50807;52.436;13.346;2022-08-21T01:16:44;101065.00;;;23.90
15845;BMP180;50807;52.436;13.346;2022-08-21T01:17:17;101059.00;;;23.90
15845;BMP180;50807;52.436;13.346;2022-08-21T01:17:49;101066.00;;;24.00
15845;BMP180;50807;52.436;13.346;2022-08-21T01:18:22;101070.00;;;24.00
15845;BMP180;50807;52.436;13.346;2022-08-21T01:18:53;101072.00;;;24.00
15845;BMP180;50807;52.436;13.346;2022-08-21T01:19:26;101069.00;;;24.00
15845;BMP180;50807;52.436;13.346;2022-08-21T01:19:58;101069.00;;;24.00
15845;BMP180;50807;52.436;13.346;2022-08-21T01:20:30;101070.00;;;24.00
15845;BMP180;50807;52.436;13.346;2022-08-21T01:21:07;101073.00;;;23.90
15845;BMP180;50807;52.436;13.346;2022-08-21T01:21:40;101068.00;;;23.90
15845;BMP180;50807;52.436;13.346;2022-08-21T01:22:11;101065.00;;;24.00
15845;BMP180;50807;52.436;13.346;2022-08-21T01:22:42;101066.00;;;24.00
15845;BMP180;50807;52.436;13.346;2022-08-21T01:23:14;101072.00;;;24.00
15845;BMP180;50807;52.436;13.346;2022-08-21T01:23:48;101074.00;;;23.90
15845;BMP180;50807;52.436;13.346;2022-08-21T01:24:19;101058.00;;;24.00
15845;BMP180;50807;52.436;13.346;2022-08-21T01:24:51;101067.00;;;23.90
15845;BMP180;50807;52.436;13.346;2022-08-21T01:25:55;101064.00;;;24.00
15845;BMP180;50807;52.436;13.346;2022-08-21T01:26:32;101067.00;;;23.90
15845;BMP180;50807;52.436;13.346;2022-08-21T01:27:05;101067.00;;;23.90
15845;BMP180;50807;52.436;13.346;2022-08-21T01:27:36;101068.00;;;23.90
15845;BMP180;50807;52.436;13.346;2022-08-21T01:28:13;101060.00;;;23.80
15845;BMP180;50807;52.436;13.346;2022-08-21T01:28:52;101070.00;;;23.80
15845;BMP180;50807;52.436;13.346;2022-08-21T01:29:33;101069.00;;;23.80
15845;BMP180;50807;52.436;13.346;2022-08-21T01:30:12;101062.00;;;23.80
15845;BMP180;50807;52.436;13.346;2022-08-21T01:30:44;101067.00;;;23.80
15845;BMP180;50807;52.436;13.346;2022-08-21T01:31:17;101071.00;;;23.80
15845;BMP180;50807;52.436;13.346;2022-08-21T01:31:51;101060.00;;;23.90
15845;BMP180;50807;52.436;13.346;2022-08-21T01:32:23;101059.00;;;23.90
15845;BMP180;50807;52.436;13.346;2022-08-21T01:32:55;101067.00;;;23.90
15845;BMP180;50807;52.436;13.346;2022-08-21T01:33:27;101067.00;;;23.90
15845;BMP180;50807;52.436;13.346;2022-08-21T01:33:58;101062.00;;;23.90
15845;BMP180;50807;52.436;13.346;2022-08-21T01:34:29;101066.00;;;23.90
15845;BMP180;50807;52.436;13.346;2022-08-21T01:35:00;101064.00;;;23.90
15845;BMP180;50807;52.436;13.346;2022-08-21T01:35:32;101059.00;;;23.90
15845;BMP180;50807;52.436;13.346;2022-08-21T01:36:05;101071.00;;;23.90
15845;BMP180;50807;52.436;13.346;2022-08-21T01:36:36;101069.00;;;23.90
15845;BMP180;50807;52.436;13.346;2022-08-21T01:37:09;101066.00;;;23.90
15845;BMP180;50807;52.436;13.346;2022-08-21T01:37:41;101065.00;;;23.90
15845;BMP180;50807;52.436;13.346;2022-08-21T01:38:12;101066.00;;;23.90
15845;BMP180;50807;52.436;13.346;2022-08-21T01:38:44;101067.00;;;23.90
15845;BMP180;50807;52.436;13.346;2022-08-21T01:39:15;101069.00;;;23.90
15845;BMP180;50807;52.436;13.346;2022-08-21T01:39:46;101070.00;;;23.90
15845;BMP180;50807;52.436;13.346;2022-08-21T01:40:19;101072.00;;;23.90
15845;BMP180;50807;52.436;13.346;2022-08-21T01:40:50;101060.00;;;23.90
15845;BMP180;50807;52.436;13.346;2022-08-21T01:41:20;101066.00;;;23.90
15845;BMP180;50807;52.436;13.346;2022-08-21T01:41:52;101073.00;;;23.90
15845;BMP180;50807;52.436;13.346;2022-08-21T01:42:23;101065.00;;;23.90
15845;BMP180;50807;52.436;13.346;2022-08-21T01:42:54;101068.00;;;23.90
15845;BMP180;50807;52.436;13.346;2022-08-21T01:43:25;101070.00;;;23.90
15845;BMP180;50807;52.436;13.346;2022-08-21T01:43:56;101070.00;;;23.90
15845;BMP180;50807;52.436;13.346;2022-08-21T01:44:27;101075.00;;;23.90
15845;BMP180;50807;52.436;13.346;2022-08-21T01:44:59;101070.00;;;23.90
15845;BMP180;50807;52.436;13.346;2022-08-21T01:45:30;101076.00;;;23.90
15845;BMP180;50807;52.436;13.346;2022-08-21T01:46:03;101081.00;;;23.80
15845;BMP180;50807;52.436;13.346;2022-08-21T01:46:36;101074.00;;;23.80
15845;BMP180;50807;52.436;13.346;2022-08-21T01:47:11;101077.00;;;23.80
15845;BMP180;50807;52.436;13.346;2022-08-21T01:47:43;101080.00;;;23.80
15845;BMP180;50807;52.436;13.346;2022-08-21T01:48:14;101085.00;;;23.80
15845;BMP180;50807;52.436;13.346;2022-08-21T01:48:46;101082.00;;;23.80
15845;BMP180;50807;52.436;13.346;2022-08-21T01:49:17;101077.00;;;23.80
15845;BMP180;50807;52.436;13.346;2022-08-21T01:49:48;101085.00;;;23.80
15845;BMP180;50807;52.436;13.346;2022-08-21T01:50:21;101081.00;;;23.80
15845;BMP180;50807;52.436;13.346;2022-08-21T01:50:51;101082.00;;;23.80
15845;BMP180;50807;52.436;13.346;2022-08-21T01:51:23;101079.00;;;23.80
15845;BMP180;50807;52.436;13.346;2022-08-21T01:51:55;101079.00;;;23.80
15845;BMP180;50807;52.436;13.346;2022-08-21T01:52:26;101083.00;;;23.80
15845;BMP180;50807;52.436;13.346;2022-08-21T01:52:58;101082.00;;;23.80
15845;BMP180;50807;52.436;13.346;2022-08-21T01:53:30;101081.00;;;23.80
15845;BMP180;50807;52.436;13.346;2022-08-21T01:54:02;101077.00;;;23.80
15845;BMP180;50807;52.436;13.346;2022-08-21T01:54:33;101076.00;;;23.80
15845;BMP180;50807;52.436;13.346;2022-08-21T01:55:06;101075.00;;;23.80
15845;BMP180;50807;52.436;13.346;2022-08-21T01:55:38;101084.00;;;23.80
15845;BMP180;50807;52.436;13.346;2022-08-21T01:56:13;101087.00;;;23.70
15845;BMP180;50807;52.436;13.346;2022-08-21T01:56:48;101076.00;;;23.70
15845;BMP180;50807;52.436;13.346;2022-08-21T01:57:21;101078.00;;;23.70
15845;BMP180;50807;52.436;13.346;2022-08-21T01:57:52;101081.00;;;23.70
15845;BMP180;50807;52.436;13.346;2022-08-21T01:58:23;101081.00;;;23.80
15845;BMP180;50807;52.436;13.346;2022-08-21T01:58:55;101084.00;;;23.80
15845;BMP180;50807;52.436;13.346;2022-08-21T01:59:26;101075.00;;;23.70
15845;BMP180;50807;52.436;13.346;2022-08-21T01:59:57;101079.00;;;23.80
15845;BMP180;50807;52.436;13.346;2022-08-21T02:00:28;101083.00;;;23.70
15845;BMP180;50807;52.436;13.346;2022-08-21T02:01:00;101077.00;;;23.70
15845;BMP180;50807;52.436;13.346;2022-08-21T02:01:32;101080.00;;;23.70
15845;BMP180;50807;52.436;13.346;2022-08-21T02:02:03;101086.00;;;23.70
15845;BMP180;50807;52.436;13.346;2022-08-21T02:02:35;101084.00;;;23.70
15845;BMP180;50807;52.436;13.346;2022-08-21T02:03:06;101080.00;;;23.70
15845;BMP180;50807;52.436;13.346;2022-08-21T02:03:38;101085.00;;;23.70
15845;BMP180;50807;52.436;13.346;2022-08-21T02:04:11;101088.00;;;23.70
15845;BMP180;50807;52.436;13.346;2022-08-21T02:04:42;101081.00;;;23.70
15845;BMP180;50807;52.436;13.346;2022-08-21T02:05:16;101079.00;;;23.70
15845;BMP180;50807;52.436;13.346;2022-08-21T02:05:48;101086.00;;;23.70
15845;BMP180;50807;52.436;13.346;2022-08-21T02:06:19;101083.00;;;23.70
15845;BMP180;50807;52.436;13.346;2022-08-21T02:06:51;101087.00;;;23.70
15845;BMP180;50807;52.436;13.346;2022-08-21T02:07:23;101085.00;;;23.70
15845;BMP180;50807;52.436;13.346;2022-08-21T02:07:55;101085.00;;;23.70
15845;BMP180;50807;52.436;13.346;2022-08-21T02:08:27;101085.00;;;23.70
15845;BMP180;50807;52.436;13.346;2022-08-21T02:08:58;101085.00;;;23.60
15845;BMP180;50807;52.436;13.346;2022-08-21T02:09:30;101081.00;;;23.70
15845;BMP180;50807;52.436;13.346;2022-08-21T02:10:00;101078.00;;;23.60
15845;BMP180;50807;52.436;13.346;2022-08-21T02:10:33;101073.00;;;23.70
15845;BMP180;50807;52.436;13.346;2022-08-21T02:11:04;101073.00;;;23.70
15845;BMP180;50807;52.436;13.346;2022-08-21T02:11:36;101078.00;;;23.70
15845;BMP180;50807;52.436;13.346;2022-08-21T02:12:11;101079.00;;;23.60
15845;BMP180;50807;52.436;13.346;2022-08-21T02:12:42;101072.00;;;23.60
15845;BMP180;50807;52.436;13.346;2022-08-21T02:13:12;101076.00;;;23.60
15845;BMP180;50807;52.436;13.346;2022-08-21T02:13:45;101073.00;;;23.60
15845;BMP180;50807;52.436;13.346;2022-08-21T02:14:16;101073.00;;;23.60
15845;BMP180;50807;52.436;13.346;2022-08-21T02:14:46;101077.00;;;23.70
15845;BMP180;50807;52.436;13.346;2022-08-21T02:15:19;101071.00;;;23.60
15845;BMP180;50807;52.436;13.346;2022-08-21T02:15:50;101071.00;;;23.70
15845;BMP180;50807;52.436;13.346;2022-08-21T02:16:21;101075.00;;;23.70
15845;BMP180;50807;52.436;13.346;2022-08-21T02:16:52;101067.00;;;23.70
15845;BMP180;50807;52.436;13.346;2022-08-21T02:17:23;101072.00;;;23.60
15845;BMP180;50807;52.436;13.346;2022-08-21T02:17:58;101066.00;;;23.60
15845;BMP180;50807;52.436;13.346;2022-08-21T02:18:29;101060.00;;;23.70
15845;BMP180;50807;52.436;13.346;2022-08-21T02:19:01;101064.00;;;23.60
15845;BMP180;50807;52.436;13.346;2022-08-21T02:19:32;101067.00;;;23.60
15845;BMP180;50807;52.436;13.346;2022-08-21T02:20:04;101065.00;;;23.60
15845;BMP180;50807;52.436;13.346;2022-08-21T02:20:39;101064.00;;;23.60
15845;BMP180;50807;52.436;13.346;2022-08-21T02:21:11;101065.00;;;23.60
15845;BMP180;50807;52.436;13.346;2022-08-21T02:21:42;101066.00;;;23.60
15845;BMP180;50807;52.436;13.346;2022-08-21T02:22:14;101063.00;;;23.60
15845;BMP180;50807;52.436;13.346;2022-08-21T02:22:46;101056.00;;;23.60
15845;BMP180;50807;52.436;13.346;2022-08-21T02:23:17;101063.00;;;23.60
15845;BMP180;50807;52.436;13.346;2022-08-21T02:23:48;101059.00;;;23.60
15845;BMP180;50807;52.436;13.346;2022-08-21T02:24:19;101059.00;;;23.60
15845;BMP180;50807;52.436;13.346;2022-08-21T02:24:50;101063.00;;;23.60
15845;BMP180;50807;52.436;13.346;2022-08-21T02:25:24;101055.00;;;23.60
15845;BMP180;50807;52.436;13.346;2022-08-21T02:25:57;101071.00;;;23.60
15845;BMP180;50807;52.436;13.346;2022-08-21T02:26:28;101070.00;;;23.50
15845;BMP180;50807;52.436;13.346;2022-08-21T02:26:59;101069.00;;;23.60
15845;BMP180;50807;52.436;13.346;2022-08-21T02:27:38;101067.00;;;23.50
15845;BMP180;50807;52.436;13.346;2022-08-21T02:28:13;101071.00;;;23.50
15845;BMP180;50807;52.436;13.346;2022-08-21T02:28:44;101067.00;;;23.50
15845;BMP180;50807;52.436;13.346;2022-08-21T02:29:16;101067.00;;;23.50
15845;BMP180;50807;52.436;13.346;2022-08-21T02:29:47;101064.00;;;23.50
15845;BMP180;50807;52.436;13.346;2022-08-21T02:30:23;101065.00;;;23.50
15845;BMP180;50807;52.436;13.346;2022-08-21T02:30:56;101071.00;;;23.50
15845;BMP180;50807;52.436;13.346;2022-08-21T02:31:27;101064.00;;;23.50
15845;BMP180;50807;52.436;13.346;2022-08-21T02:31:58;101069.00;;;23.50
15845;BMP180;50807;52.436;13.346;2022-08-21T02:32:30;101066.00;;;23.50
15845;BMP180;50807;52.436;13.346;2022-08-21T02:33:01;101068.00;;;23.50
15845;BMP180;50807;52.436;13.346;2022-08-21T02:33:32;101059.00;;;23.50
15845;BMP180;50807;52.436;13.346;2022-08-21T02:34:04;101065.00;;;23.50
15845;BMP180;50807;52.436;13.346;2022-08-21T02:34:34;101074.00;;;23.50
15845;BMP180;50807;52.436;13.346;2022-08-21T02:35:06;101066.00;;;23.50
15845;BMP180;50807;52.436;13.346;2022-08-21T02:35:41;101065.00;;;23.40
15845;BMP180;50807;52.436;13.346;2022-08-21T02:36:12;101074.00;;;23.40
15845;BMP180;50807;52.436;13.346;2022-08-21T02:36:43;101065.00;;;23.40
15845;BMP180;50807;52.436;13.346;2022-08-21T02:37:16;101068.00;;;23.40
15845;BMP180;50807;52.436;13.346;2022-08-21T02:37:51;101066.00;;;23.40
15845;BMP180;50807;52.436;13.346;2022-08-21T02:38:28;101071.00;;;23.40
15845;BMP180;50807;52.436;13.346;2022-08-21T02:39:01;101068.00;;;23.40
15845;BMP180;50807;52.436;13.346;2022-08-21T02:39:31;101073.00;;;23.40
15845;BMP180;50807;52.436;13.346;2022-08-21T02:40:04;101066.00;;;23.40
15845;BMP180;50807;52.436;13.346;2022-08-21T02:40:39;101074.00;;;23.30
15845;BMP180;50807;52.436;13.346;2022-08-21T02:41:14;101075.00;;;23.30
15845;BMP180;50807;52.436;13.346;2022-08-21T02:41:45;101071.00;;;23.30
15845;BMP180;50807;52.436;13.346;2022-08-21T02:42:17;101075.00;;;23.40
15845;BMP180;50807;52.436;13.346;2022-08-21T02:42:49;101067.00;;;23.40
15845;BMP180;50807;52.436;13.346;2022-08-21T02:43:22;101069.00;;;23.30
15845;BMP180;50807;52.436;13.346;2022-08-21T02:43:53;101069.00;;;23.30
15845;BMP180;50807;52.436;13.346;2022-08-21T02:44:25;101070.00;;;23.40
15845;BMP180;50807;52.436;13.346;2022-08-21T02:44:56;101067.00;;;23.40
15845;BMP180;50807;52.436;13.346;2022-08-21T02:45:28;101062.00;;;23.30
15845;BMP180;50807;52.436;13.346;2022-08-21T02:46:00;101077.00;;;23.30
15845;BMP180;50807;52.436;13.346;2022-08-21T02:46:31;101066.00;;;23.30
15845;BMP180;50807;52.436;13.346;2022-08-21T02:47:02;101070.00;;;23.40
15845;BMP180;50807;52.436;13.346;2022-08-21T02:47:33;101073.00;;;23.30
15845;BMP180;50807;52.436;13.346;2022-08-21T02:48:09;101065.00;;;23.30
15845;BMP180;50807;52.436;13.346;2022-08-21T02:48:41;101067.00;;;23.30
15845;BMP180;50807;52.436;13.346;2022-08-21T02:49:13;101067.00;;;23.30
15845;BMP180;50807;52.436;13.346;2022-08-21T02:49:44;101070.00;;;23.30
15845;BMP180;50807;52.436;13.346;2022-08-21T02:50:21;101069.00;;;23.30
15845;BMP180;50807;52.436;13.346;2022-08-21T02:50:57;101070.00;;;23.20
15845;BMP180;50807;52.436;13.346;2022-08-21T02:51:28;101073.00;;;23.30
15845;BMP180;50807;52.436;13.346;2022-08-21T02:51:59;101070.00;;;23.30
15845;BMP180;50807;52.436;13.346;2022-08-21T02:52:32;101063.00;;;23.30
15845;BMP180;50807;52.436;13.346;2022-08-21T02:53:05;101071.00;;;23.30
15845;BMP180;50807;52.436;13.346;2022-08-21T02:53:38;101076.00;;;23.30
15845;BMP180;50807;52.436;13.346;2022-08-21T02:54:10;101070.00;;;23.30
15845;BMP180;50807;52.436;13.346;2022-08-21T02:54:41;101074.00;;;23.30
15845;BMP180;50807;52.436;13.346;2022-08-21T02:55:12;101074.00;;;23.20
15845;BMP180;50807;52.436;13.346;2022-08-21T02:55:46;101075.00;;;23.20
15845;BMP180;50807;52.436;13.346;2022-08-21T02:56:20;101074.00;;;23.20
15845;BMP180;50807;52.436;13.346;2022-08-21T02:56:52;101079.00;;;23.20
15845;BMP180;50807;52.436;13.346;2022-08-21T02:57:23;101073.00;;;23.20
15845;BMP180;50807;52.436;13.346;2022-08-21T02:57:56;101074.00;;;23.30
15845;BMP180;50807;52.436;13.346;2022-08-21T02:58:30;101071.00;;;23.20
15845;BMP180;50807;52.436;13.346;2022-08-21T02:59:02;101078.00;;;23.20
15845;BMP180;50807;52.436;13.346;2022-08-21T02:59:34;101071.00;;;23.20
15845;BMP180;50807;52.436;13.346;2022-08-21T03:00:07;101069.00;;;23.20
15845;BMP180;50807;52.436;13.346;2022-08-21T03:00:39;101074.00;;;23.20
15845;BMP180;50807;52.436;13.346;2022-08-21T03:01:10;101071.00;;;23.20
15845;BMP180;50807;52.436;13.346;2022-08-21T03:01:42;101073.00;;;23.20
15845;BMP180;50807;52.436;13.346;2022-08-21T03:02:13;101075.00;;;23.20